createdAt,value
2024-02-29T00:00:15.532Z,18.33
2024-02-29T00:02:42.597Z,13.32
2024-02-29T00:05:13.485Z,22.23
2024-02-29T00:07:41.499Z,10.25
2024-02-29T00:10:10.357Z,11.90
2024-02-29T00:12:37.654Z,6.65
2024-02-29T00:15:04.943Z,13.40
2024-02-29T00:17:33.029Z,8.35
2024-02-29T00:20:00.621Z,12.43
2024-02-29T00:22:27.507Z,9.70
2024-02-29T00:24:54.431Z,14.98
2024-02-29T00:27:22.461Z,12.20
2024-02-29T00:29:49.459Z,6.75
2024-02-29T00:32:16.274Z,9.75
2024-02-29T00:34:43.095Z,10.60
2024-02-29T00:37:10.578Z,18.33
2024-02-29T00:39:37.520Z,8.50
2024-02-29T00:42:04.410Z,12.95
2024-02-29T00:44:31.237Z,6.30
2024-02-29T00:46:58.027Z,13.55
2024-02-29T00:49:24.977Z,8.40
2024-02-29T00:51:51.927Z,10.30
2024-02-29T00:54:19.022Z,10.80
2024-02-29T00:56:45.920Z,12.80
2024-02-29T00:59:12.735Z,8.02
2024-02-29T01:01:39.611Z,11.40
2024-02-29T01:04:06.561Z,17.88
2024-02-29T01:06:33.454Z,7.13
2024-02-29T01:09:01.349Z,7.38
2024-02-29T01:11:28.340Z,5.75
2024-02-29T01:13:55.226Z,7.75
2024-02-29T01:16:22.083Z,9.63
2024-02-29T01:18:49.186Z,12.00
2024-02-29T01:21:16.104Z,11.23
2024-02-29T01:23:42.949Z,8.75
2024-02-29T01:26:11.614Z,9.25
2024-02-29T01:28:38.486Z,10.13
2024-02-29T01:31:05.488Z,7.53
2024-02-29T01:33:32.472Z,7.07
2024-02-29T01:35:59.299Z,11.25
2024-02-29T01:38:26.097Z,12.07
2024-02-29T01:40:53.556Z,9.75
2024-02-29T01:43:20.538Z,7.80
2024-02-29T01:45:51.623Z,11.90
2024-02-29T01:48:18.716Z,19.65
2024-02-29T01:50:45.915Z,18.35
2024-02-29T01:53:12.934Z,15.70
2024-02-29T01:55:39.772Z,17.67
2024-02-29T01:58:06.720Z,12.95
2024-02-29T02:00:34.407Z,7.65
2024-02-29T02:03:01.293Z,7.68
2024-02-29T02:05:28.859Z,6.20
2024-02-29T02:07:56.425Z,3.95
2024-02-29T02:10:23.358Z,5.07
2024-02-29T02:12:50.201Z,4.10
2024-02-29T02:15:17.195Z,8.02
2024-02-29T02:17:44.258Z,4.60
2024-02-29T02:20:18.320Z,6.20
2024-02-29T02:22:45.331Z,5.68
2024-02-29T02:25:12.925Z,3.08
2024-02-29T02:27:40.227Z,2.67
2024-02-29T02:30:08.238Z,4.65
2024-02-29T02:32:36.632Z,3.55
2024-02-29T02:35:08.262Z,1.08
2024-02-29T02:37:36.203Z,1.30
2024-02-29T02:40:06.190Z,4.25
2024-02-29T02:42:33.816Z,4.18
2024-02-29T02:45:00.846Z,5.93
2024-02-29T02:47:27.834Z,2.55
2024-02-29T02:49:54.846Z,3.92
2024-02-29T02:52:21.807Z,2.50
2024-02-29T02:54:49.012Z,1.50
2024-02-29T02:57:15.867Z,5.88
2024-02-29T02:59:42.739Z,3.15
2024-02-29T03:02:09.591Z,1.38
2024-02-29T03:04:36.519Z,3.30
2024-02-29T03:07:03.529Z,6.70
2024-02-29T03:09:31.809Z,2.65
2024-02-29T03:11:58.788Z,2.53
2024-02-29T03:14:25.583Z,3.25
2024-02-29T03:16:52.396Z,2.72
2024-02-29T03:19:19.264Z,3.80
2024-02-29T03:21:46.475Z,2.42
2024-02-29T03:24:13.386Z,2.92
2024-02-29T03:26:40.204Z,3.58
2024-02-29T03:29:08.399Z,3.10
2024-02-29T03:31:35.345Z,5.20
2024-02-29T03:34:04.134Z,1.95
2024-02-29T03:36:31.224Z,3.67
2024-02-29T03:38:59.065Z,2.17
2024-02-29T03:41:26.113Z,1.63
2024-02-29T03:43:52.994Z,5.72
2024-02-29T03:46:19.903Z,5.88
2024-02-29T03:48:46.779Z,2.20
2024-02-29T03:51:14.180Z,3.38
2024-02-29T03:53:41.039Z,3.00
2024-02-29T03:56:07.910Z,5.82
2024-02-29T03:58:34.725Z,2.17
2024-02-29T04:01:01.753Z,1.42
2024-02-29T04:03:28.662Z,1.52
2024-02-29T04:05:56.308Z,3.50
2024-02-29T04:08:23.203Z,4.80
2024-02-29T04:10:51.772Z,2.30
2024-02-29T04:13:19.277Z,1.05
2024-02-29T04:15:49.705Z,4.95
2024-02-29T04:18:17.362Z,1.10
2024-02-29T04:20:45.169Z,4.10
2024-02-29T04:23:12.444Z,7.45
2024-02-29T04:25:39.506Z,3.78
2024-02-29T04:28:06.727Z,2.20
2024-02-29T04:30:33.874Z,2.28
2024-02-29T04:33:01.723Z,5.25
2024-02-29T04:35:28.604Z,4.50
2024-02-29T04:37:55.484Z,3.90
2024-02-29T04:40:22.406Z,3.80
2024-02-29T04:42:49.397Z,4.03
2024-02-29T04:45:16.386Z,2.85
2024-02-29T04:47:43.348Z,5.43
2024-02-29T04:50:10.849Z,8.25
2024-02-29T04:52:37.708Z,2.92
2024-02-29T04:55:04.901Z,3.25
2024-02-29T04:57:31.776Z,2.40
2024-02-29T04:59:58.582Z,4.50
2024-02-29T05:02:25.407Z,2.55
2024-02-29T05:04:52.235Z,5.32
2024-02-29T05:07:19.193Z,7.18
2024-02-29T05:09:46.186Z,3.28
2024-02-29T05:12:13.079Z,5.55
2024-02-29T05:14:39.912Z,7.28
2024-02-29T05:17:06.854Z,2.58
2024-02-29T05:19:33.780Z,5.75
2024-02-29T05:22:00.682Z,6.00
2024-02-29T05:24:27.639Z,5.22
2024-02-29T05:26:54.502Z,5.20
2024-02-29T05:29:21.340Z,3.25
2024-02-29T05:31:54.989Z,3.60
2024-02-29T05:34:22.138Z,9.40
2024-02-29T05:36:49.264Z,5.28
2024-02-29T05:39:16.597Z,9.02
2024-02-29T05:41:43.438Z,4.47
2024-02-29T05:44:10.313Z,4.30
2024-02-29T05:46:37.699Z,6.25
2024-02-29T05:49:04.677Z,5.82
2024-02-29T05:51:31.814Z,6.35
2024-02-29T05:53:58.720Z,6.13
2024-02-29T05:56:25.551Z,6.57
2024-02-29T05:58:52.511Z,5.03
2024-02-29T06:01:19.706Z,6.68
2024-02-29T06:03:46.971Z,6.80
2024-02-29T06:06:16.684Z,7.95
2024-02-29T06:08:43.843Z,7.55
2024-02-29T06:11:16.992Z,8.30
2024-02-29T06:13:44.714Z,9.32
2024-02-29T06:16:15.270Z,17.40
2024-02-29T06:18:43.490Z,9.93
2024-02-29T06:21:11.117Z,6.38
2024-02-29T06:23:38.097Z,12.90
2024-02-29T06:26:05.530Z,9.50
2024-02-29T06:28:32.747Z,13.15
2024-02-29T06:31:00.114Z,6.43
2024-02-29T06:33:27.206Z,7.60
2024-02-29T06:35:54.309Z,9.15
2024-02-29T06:38:21.933Z,11.82
2024-02-29T06:40:49.098Z,6.75
2024-02-29T06:43:16.398Z,8.65
2024-02-29T06:45:49.179Z,9.65
2024-02-29T06:48:20.443Z,12.30
2024-02-29T06:50:47.515Z,10.50
2024-02-29T06:53:14.766Z,6.20
2024-02-29T06:55:41.884Z,14.23
2024-02-29T06:58:09.129Z,11.73
2024-02-29T07:00:36.223Z,9.75
2024-02-29T07:03:03.250Z,12.45
2024-02-29T07:05:32.573Z,20.75
2024-02-29T07:08:02.604Z,5.72
2024-02-29T07:10:30.582Z,5.13
2024-02-29T07:12:57.801Z,6.15
2024-02-29T07:15:25.060Z,12.50
2024-02-29T07:17:52.448Z,7.90
2024-02-29T07:20:19.510Z,8.88
2024-02-29T07:22:47.667Z,7.95
2024-02-29T07:25:18.073Z,7.57
2024-02-29T07:27:47.270Z,9.77
2024-02-29T07:30:15.208Z,12.23
2024-02-29T07:32:42.566Z,9.98
2024-02-29T07:35:14.606Z,7.53
2024-02-29T07:40:12.459Z,16.67
2024-02-29T07:42:40.616Z,11.10
2024-02-29T07:45:10.659Z,12.00
2024-02-29T07:47:37.973Z,12.15
2024-02-29T07:50:06.669Z,6.60
2024-02-29T07:52:33.993Z,4.03
2024-02-29T07:55:01.002Z,4.72
2024-02-29T07:57:28.278Z,8.88
2024-02-29T07:59:58.575Z,14.00
2024-02-29T08:05:09.550Z,9.75
2024-02-29T08:07:40.309Z,13.40
2024-02-29T08:10:08.100Z,11.73
2024-02-29T08:12:35.267Z,13.85
2024-02-29T08:15:02.382Z,13.57
2024-02-29T08:17:30.254Z,17.55
2024-02-29T08:19:57.830Z,14.93
2024-02-29T08:22:27.720Z,12.18
2024-02-29T08:25:02.017Z,11.40
2024-02-29T08:27:37.385Z,14.15
2024-02-29T08:32:28.383Z,24.67
2024-02-29T08:32:52.610Z,13.73
2024-02-29T08:35:20.121Z,8.02
2024-02-29T08:37:47.251Z,17.25
2024-02-29T08:45:45.088Z,22.30
2024-02-29T08:51:15.630Z,14.52
2024-02-29T08:54:06.354Z,10.10
2024-02-29T08:56:48.462Z,7.93
2024-02-29T09:05:03.009Z,9.77
2024-02-29T09:07:33.066Z,9.95
2024-02-29T09:10:00.725Z,11.52
2024-02-29T09:12:28.223Z,13.32
2024-02-29T09:14:58.861Z,11.23
2024-02-29T09:17:28.410Z,7.88
2024-02-29T09:20:02.412Z,11.23
2024-02-29T09:22:29.450Z,19.63
2024-02-29T09:24:57.502Z,10.65
2024-02-29T09:27:24.621Z,15.93
2024-02-29T09:29:51.857Z,11.88
2024-02-29T09:32:21.639Z,10.18
2024-02-29T09:34:52.094Z,15.15
2024-02-29T09:37:19.730Z,11.93
2024-02-29T09:39:46.880Z,17.55
2024-02-29T09:42:15.366Z,9.57
2024-02-29T09:44:43.869Z,11.85
2024-02-29T09:47:13.991Z,16.48
2024-02-29T09:49:42.201Z,14.73
2024-02-29T09:52:10.983Z,10.55
2024-02-29T09:54:41.097Z,12.60
2024-02-29T09:57:13.167Z,13.50
2024-02-29T09:59:43.168Z,10.18
2024-02-29T10:02:17.350Z,12.45
2024-02-29T10:04:45.232Z,18.05
2024-02-29T10:07:12.792Z,31.77
2024-02-29T10:09:39.821Z,13.18
2024-02-29T10:12:08.935Z,17.23
2024-02-29T10:14:36.243Z,18.52
2024-02-29T10:17:05.456Z,13.02
2024-02-29T10:19:34.550Z,9.95
2024-02-29T10:22:01.568Z,12.27
2024-02-29T10:24:28.612Z,9.57
2024-02-29T10:27:03.530Z,12.23
2024-02-29T10:29:31.089Z,15.40
2024-02-29T10:32:01.310Z,12.48
2024-02-29T10:34:28.452Z,10.55
2024-02-29T10:36:59.519Z,12.70
2024-02-29T10:39:27.453Z,9.43
2024-02-29T10:41:59.648Z,10.63
2024-02-29T10:44:31.860Z,14.68
2024-02-29T10:47:06.834Z,10.18
2024-02-29T10:49:45.468Z,11.68
2024-02-29T10:52:27.442Z,13.32
2024-02-29T10:57:38.190Z,13.85
2024-02-29T11:00:06.548Z,16.38
2024-02-29T11:02:33.722Z,10.35
2024-02-29T11:05:01.027Z,11.05
2024-02-29T11:07:28.394Z,14.85
2024-02-29T11:09:55.905Z,11.82
2024-02-29T11:12:23.250Z,9.63
2024-02-29T11:14:53.175Z,15.68
2024-02-29T11:17:20.338Z,24.20
2024-02-29T11:19:58.112Z,17.83
2024-02-29T11:22:35.795Z,19.50
2024-02-29T11:25:12.238Z,15.40
2024-02-29T11:27:48.417Z,19.70
2024-02-29T11:30:20.200Z,16.20
2024-02-29T11:32:47.242Z,21.50
2024-02-29T11:35:16.111Z,14.30
2024-02-29T11:37:48.021Z,14.23
2024-02-29T11:40:25.635Z,11.80
2024-02-29T11:43:03.187Z,12.18
2024-02-29T11:45:37.612Z,15.32
2024-02-29T11:48:05.651Z,14.70
2024-02-29T11:50:32.749Z,12.55
2024-02-29T11:53:04.817Z,16.73
2024-02-29T11:55:32.350Z,15.82
2024-02-29T11:58:08.388Z,12.73
2024-02-29T12:00:35.479Z,11.13
2024-02-29T12:03:06.799Z,6.85
2024-02-29T12:05:36.316Z,14.90
2024-02-29T12:08:04.318Z,16.42
2024-02-29T12:10:34.769Z,10.35
2024-02-29T12:13:02.231Z,13.52
2024-02-29T12:15:31.105Z,5.80
2024-02-29T12:18:00.810Z,18.35
2024-02-29T12:20:32.668Z,8.27
2024-02-29T12:23:00.718Z,15.93
2024-02-29T12:25:28.280Z,14.00
2024-02-29T12:27:58.087Z,10.00
2024-02-29T12:30:27.954Z,6.15
2024-02-29T12:32:56.416Z,15.52
2024-02-29T12:35:28.530Z,10.40
2024-02-29T12:37:56.820Z,17.02
2024-02-29T12:40:28.198Z,13.27
2024-02-29T12:43:06.058Z,15.38
2024-02-29T12:45:34.064Z,9.65
2024-02-29T12:48:02.846Z,15.50
2024-02-29T12:50:34.595Z,14.93
2024-02-29T12:53:01.897Z,14.80
2024-02-29T12:55:30.208Z,11.30
2024-02-29T12:57:57.358Z,15.20
2024-02-29T13:00:26.179Z,16.40
2024-02-29T13:02:53.993Z,8.57
2024-02-29T13:05:22.214Z,11.02
2024-02-29T13:07:49.742Z,14.45
2024-02-29T13:10:17.211Z,7.80
2024-02-29T13:12:54.225Z,8.68
2024-02-29T13:15:24.466Z,11.05
2024-02-29T13:17:51.396Z,10.15
2024-02-29T13:20:22.915Z,14.32
2024-02-29T13:22:50.137Z,8.05
2024-02-29T13:25:17.750Z,8.93
2024-02-29T13:27:46.881Z,11.07
2024-02-29T13:30:15.589Z,12.30
2024-02-29T13:32:51.546Z,10.93
2024-02-29T13:35:19.849Z,12.63
2024-02-29T13:37:48.131Z,17.40
2024-02-29T13:40:15.182Z,14.23
2024-02-29T13:42:44.121Z,11.43
2024-02-29T13:45:12.411Z,11.18
2024-02-29T13:47:53.755Z,9.15
2024-02-29T13:50:21.988Z,11.95
2024-02-29T13:52:49.878Z,6.28
2024-02-29T13:55:17.237Z,14.80
2024-02-29T13:57:44.502Z,11.63
2024-02-29T14:00:11.879Z,13.32
2024-02-29T14:02:41.134Z,18.60
2024-02-29T14:05:08.466Z,16.77
2024-02-29T14:07:35.781Z,30.15
2024-02-29T14:10:03.660Z,16.77
2024-02-29T14:12:32.907Z,11.82
2024-02-29T14:14:59.838Z,11.32
2024-02-29T14:17:28.754Z,8.20
2024-02-29T14:19:55.679Z,10.77
2024-02-29T14:22:22.777Z,14.48
2024-02-29T14:24:50.606Z,16.20
2024-02-29T14:27:18.320Z,9.60
2024-02-29T14:29:45.865Z,15.30
2024-02-29T14:32:12.978Z,10.30
2024-02-29T14:34:42.090Z,11.80
2024-02-29T14:37:14.114Z,12.13
2024-02-29T14:39:44.523Z,9.07
2024-02-29T14:42:11.559Z,11.00
2024-02-29T14:44:38.664Z,10.25
2024-02-29T14:47:05.829Z,15.07
2024-02-29T14:49:34.478Z,7.78
2024-02-29T14:52:03.732Z,10.90
2024-02-29T14:54:33.384Z,12.63
2024-02-29T14:57:22.892Z,11.60
2024-02-29T14:59:48.819Z,10.23
2024-02-29T15:02:16.477Z,10.05
2024-02-29T15:04:52.730Z,8.10
2024-02-29T15:07:26.183Z,7.75
2024-02-29T15:09:53.299Z,10.98
2024-02-29T15:12:20.844Z,9.73
2024-02-29T15:14:50.181Z,12.43
2024-02-29T15:17:20.068Z,15.65
2024-02-29T15:19:49.488Z,7.95
2024-02-29T15:22:18.354Z,26.65
2024-02-29T15:24:48.784Z,31.10
2024-02-29T15:27:22.554Z,27.77
2024-02-29T15:29:51.401Z,18.10
2024-02-29T15:32:18.616Z,17.13
2024-02-29T15:34:50.489Z,16.95
2024-02-29T15:39:44.628Z,16.02
2024-02-29T15:42:14.222Z,17.13
2024-02-29T15:44:41.357Z,9.80
2024-02-29T15:47:09.544Z,19.27
2024-02-29T15:49:38.975Z,18.55
2024-02-29T15:52:06.625Z,18.77
2024-02-29T15:54:40.847Z,16.02
2024-02-29T15:57:10.951Z,10.77
2024-02-29T15:59:39.247Z,16.23
2024-02-29T16:02:09.322Z,11.10
2024-02-29T16:04:38.192Z,15.10
2024-02-29T16:07:05.363Z,9.63
2024-02-29T16:09:33.547Z,21.77
2024-02-29T16:12:01.911Z,11.90
2024-02-29T16:14:33.007Z,12.82
2024-02-29T16:17:07.738Z,10.63
2024-02-29T16:19:39.639Z,12.43
2024-02-29T16:24:38.531Z,14.23
2024-02-29T16:27:09.550Z,14.00
2024-02-29T16:29:40.818Z,16.47
2024-02-29T16:32:09.657Z,14.40
2024-02-29T16:34:37.608Z,13.35
2024-02-29T16:37:11.451Z,13.25
2024-02-29T16:39:39.723Z,11.50
2024-02-29T16:42:06.870Z,12.95
2024-02-29T16:44:34.150Z,11.00
2024-02-29T16:47:02.474Z,16.63
2024-02-29T16:49:45.824Z,17.83
2024-02-29T16:52:15.282Z,39.63
2024-02-29T16:54:49.255Z,18.90
2024-02-29T16:57:19.149Z,20.30
2024-02-29T16:59:46.324Z,16.02
2024-02-29T17:02:16.500Z,21.17
2024-02-29T17:04:47.311Z,14.80
2024-02-29T17:07:21.196Z,18.13
2024-02-29T17:09:56.534Z,12.82
2024-02-29T17:12:25.707Z,9.45
2024-02-29T17:14:53.153Z,19.95
2024-02-29T17:17:29.542Z,16.15
2024-02-29T17:19:57.349Z,16.15
2024-02-29T17:22:28.582Z,14.73
2024-02-29T17:24:58.504Z,22.60
2024-02-29T17:27:36.751Z,23.42
2024-02-29T17:30:07.408Z,14.85
2024-02-29T17:32:45.810Z,14.90
2024-02-29T17:35:32.686Z,16.58
2024-02-29T17:38:07.706Z,17.85
2024-02-29T17:40:35.809Z,14.60
2024-02-29T17:43:02.896Z,19.80
2024-02-29T17:45:29.778Z,24.20
2024-02-29T17:47:59.247Z,20.60
2024-02-29T17:50:30.859Z,18.45
2024-02-29T17:52:58.705Z,16.40
2024-02-29T17:55:27.396Z,21.27
2024-02-29T17:57:54.597Z,15.95
2024-02-29T18:00:22.257Z,16.23
2024-02-29T18:02:49.852Z,22.05
2024-02-29T18:05:17.153Z,16.85
2024-02-29T18:07:51.069Z,27.08
2024-02-29T18:10:25.817Z,25.55
2024-02-29T18:12:52.977Z,20.58
2024-02-29T18:15:19.968Z,20.88
2024-02-29T18:17:47.759Z,20.80
2024-02-29T18:20:20.913Z,34.28
2024-02-29T18:22:54.328Z,39.97
2024-02-29T18:25:23.901Z,64.72
2024-02-29T18:27:52.210Z,29.00
2024-02-29T18:30:20.601Z,17.83
2024-02-29T18:33:00.084Z,14.88
2024-02-29T18:35:29.728Z,20.20
2024-02-29T18:37:57.913Z,15.65
2024-02-29T18:40:27.739Z,20.98
2024-02-29T18:42:57.542Z,19.38
2024-02-29T18:45:25.822Z,20.38
2024-02-29T18:47:52.890Z,23.48
2024-02-29T18:50:26.173Z,20.80
2024-02-29T18:52:55.706Z,17.55
2024-02-29T18:55:26.815Z,16.38
2024-02-29T18:57:53.913Z,25.25
2024-02-29T19:00:26.581Z,23.15
2024-02-29T19:02:58.866Z,20.17
2024-02-29T19:05:28.228Z,17.48
2024-02-29T19:07:55.300Z,19.08
2024-02-29T19:10:24.862Z,15.50
2024-02-29T19:12:51.945Z,17.27
2024-02-29T19:15:18.922Z,12.40
2024-02-29T19:17:48.360Z,22.23
2024-02-29T19:20:21.566Z,14.55
2024-02-29T19:22:48.644Z,8.57
2024-02-29T19:25:18.029Z,14.10
2024-02-29T19:27:45.072Z,12.55
2024-02-29T19:30:12.524Z,14.30
2024-02-29T19:32:40.291Z,12.45
2024-02-29T19:35:10.291Z,16.77
2024-02-29T19:37:37.167Z,16.20
2024-02-29T19:40:06.887Z,17.08
2024-02-29T19:42:37.236Z,22.42
2024-02-29T19:45:05.041Z,23.88
2024-02-29T19:47:32.094Z,18.90
2024-02-29T19:50:01.607Z,16.90
2024-02-29T19:52:39.475Z,18.40
2024-02-29T19:55:11.964Z,20.05
2024-02-29T19:57:42.420Z,24.60
2024-02-29T20:00:16.788Z,18.92
2024-02-29T20:02:49.879Z,17.70
2024-02-29T20:05:16.924Z,16.63
2024-02-29T20:07:44.061Z,19.15
2024-02-29T20:10:16.858Z,25.23
2024-02-29T20:12:48.718Z,18.27
2024-02-29T20:15:16.462Z,19.02
2024-02-29T20:17:46.533Z,24.20
2024-02-29T20:20:19.661Z,21.70
2024-02-29T20:22:53.969Z,27.88
2024-02-29T20:25:22.446Z,18.98
2024-02-29T20:27:53.741Z,34.58
2024-02-29T20:30:22.191Z,73.35
2024-02-29T20:32:52.054Z,72.35
2024-02-29T20:35:20.971Z,22.33
2024-02-29T20:37:48.202Z,45.67
2024-02-29T20:40:15.870Z,23.95
2024-02-29T20:42:43.355Z,16.95
2024-02-29T20:45:12.935Z,23.08
2024-02-29T20:47:43.816Z,20.60
2024-02-29T20:50:11.338Z,23.02
2024-02-29T20:52:40.662Z,15.15
2024-02-29T20:55:08.379Z,18.77
2024-02-29T20:57:35.978Z,20.27
2024-02-29T21:00:12.226Z,18.15
2024-02-29T21:02:44.599Z,17.55
2024-02-29T21:05:11.529Z,20.08
2024-02-29T21:07:43.233Z,16.98
2024-02-29T21:10:13.334Z,21.00
2024-02-29T21:12:44.901Z,16.83
2024-02-29T21:15:12.102Z,19.55
2024-02-29T21:17:44.698Z,14.27
2024-02-29T21:20:17.330Z,15.20
2024-02-29T21:22:45.046Z,19.92
2024-02-29T21:25:12.723Z,11.30
2024-02-29T21:27:39.896Z,11.57
2024-02-29T21:30:08.666Z,10.63
2024-02-29T21:32:35.821Z,14.70
2024-02-29T21:35:04.264Z,11.05
2024-02-29T21:37:33.658Z,10.38
2024-02-29T21:40:06.844Z,17.98
2024-02-29T21:42:34.177Z,11.63
2024-02-29T21:45:03.575Z,13.65
2024-02-29T21:47:30.573Z,15.45
2024-02-29T21:50:00.198Z,12.82
2024-02-29T21:52:27.550Z,12.20
2024-02-29T21:54:56.741Z,13.73
2024-02-29T21:57:26.128Z,14.98
2024-02-29T21:59:54.541Z,20.15
2024-02-29T22:02:22.195Z,17.70
2024-02-29T22:04:51.603Z,11.35
2024-02-29T22:07:20.348Z,15.45
2024-02-29T22:09:47.754Z,12.57
2024-02-29T22:12:16.547Z,7.70
2024-02-29T22:14:43.545Z,10.18
2024-02-29T22:17:13.610Z,15.70
2024-02-29T22:19:40.509Z,11.60
2024-02-29T22:22:09.689Z,19.10
2024-02-29T22:24:42.041Z,10.10
2024-02-29T22:27:11.714Z,12.60
2024-02-29T22:29:39.904Z,16.75
2024-02-29T22:32:11.344Z,13.45
2024-02-29T22:34:38.239Z,21.20
2024-02-29T22:37:05.461Z,12.30
2024-02-29T22:39:34.365Z,13.35
2024-02-29T22:42:02.716Z,18.10
2024-02-29T22:44:32.278Z,14.25
2024-02-29T22:46:59.331Z,14.30
2024-02-29T22:49:28.374Z,12.93
2024-02-29T22:51:57.404Z,15.70
2024-02-29T22:54:28.241Z,17.38
2024-02-29T22:56:55.130Z,37.42
2024-02-29T22:59:24.426Z,16.33
2024-02-29T23:01:51.446Z,9.43
2024-02-29T23:04:19.470Z,15.52
2024-02-29T23:06:46.900Z,20.67
2024-02-29T23:09:13.818Z,16.75
2024-02-29T23:11:41.582Z,18.17
2024-02-29T23:14:08.927Z,18.48
2024-02-29T23:16:35.841Z,15.63
2024-02-29T23:19:02.663Z,13.85
2024-02-29T23:21:29.541Z,13.48
2024-02-29T23:23:56.383Z,16.85
2024-02-29T23:26:23.436Z,12.50
2024-02-29T23:28:50.298Z,17.20
2024-02-29T23:31:17.948Z,11.43
2024-02-29T23:33:44.926Z,13.80
2024-02-29T23:36:11.825Z,12.98
2024-02-29T23:38:38.834Z,12.73
2024-02-29T23:41:05.883Z,19.13
2024-02-29T23:43:32.762Z,19.60
2024-02-29T23:45:59.973Z,15.68
2024-02-29T23:48:26.954Z,13.00
2024-02-29T23:50:53.798Z,11.05
2024-02-29T23:53:20.634Z,8.43
2024-02-29T23:55:47.453Z,17.90
2024-02-29T23:58:14.733Z,15.65
